Time;durP1;ratioP1;P1;durP2;ratioP2;P2;SDS_P1;SDS_P2;PMS_P1;PMS_P2;Temp;Humidity;BMP_temperature;BMP_pressure;BME280_temperature;BME280_humidity;BME280_pressure;Samples;Min_cycle;Max_cycle;Signal;HPM_P1;HPM_P2
2022/04/25 00:01:28;;;;;;;14.05;11.70;;;;;;;10.85;78.54;95604.56;4973291;28;20077;-79
2022/04/25 00:03:55;;;;;;;13.25;11.77;;;;;;;10.85;78.76;95600.13;4973086;28;20503;-79
2022/04/25 00:06:23;;;;;;;12.98;11.20;;;;;;;10.87;78.97;95602.53;4981799;28;20046;-78
2022/04/25 00:08:52;;;;;;;13.45;10.95;;;;;;;10.85;78.86;95599.34;4987127;28;20070;-78
2022/04/25 00:11:20;;;;;;;11.80;10.13;;;;;;;10.84;78.38;95603.72;4975443;28;20061;-78
2022/04/25 00:13:48;;;;;;;11.57;10.30;;;;;;;10.83;77.57;95607.38;4973291;28;20518;-78
2022/04/25 00:16:16;;;;;;;12.88;11.55;;;;;;;10.81;77.82;95608.59;4972478;28;20055;-78
2022/04/25 00:18:44;;;;;;;13.38;11.20;;;;;;;10.81;78.15;95598.16;4972874;28;20101;-79
2022/04/25 00:21:11;;;;;;;11.88;9.82;;;;;;;10.82;78.32;95604.97;4973213;28;20067;-79
2022/04/25 00:23:38;;;;;;;10.93;9.32;;;;;;;10.81;78.29;95604.16;4973388;28;20058;-78
2022/04/25 00:26:09;;;;;;;11.02;9.45;;;;;;;10.82;78.59;95604.97;4972289;28;20070;-78
2022/04/25 00:28:36;;;;;;;12.88;10.15;;;;;;;10.83;78.87;95609.97;4976465;28;20051;-79
2022/04/25 00:31:03;;;;;;;12.98;10.40;;;;;;;10.83;78.38;95604.75;4976541;28;20077;-79
2022/04/25 00:33:31;;;;;;;12.13;9.95;;;;;;;10.81;78.54;95603.38;4976476;28;20055;-78
2022/04/25 00:36:00;;;;;;;11.95;9.52;;;;;;;10.82;78.53;95599.75;4975380;28;20051;-79
2022/04/25 00:38:27;;;;;;;11.40;9.73;;;;;;;10.82;78.32;95603.16;4976664;28;20053;-78
2022/04/25 00:40:54;;;;;;;10.93;9.52;;;;;;;10.82;78.43;95607.56;4976469;28;20050;-78
2022/04/25 00:43:23;;;;;;;12.27;10.05;;;;;;;10.80;78.42;95604.34;4976157;28;20050;-78
2022/04/25 00:45:51;;;;;;;11.50;10.07;;;;;;;10.82;78.21;95604.97;4975289;28;20055;-79
2022/04/25 00:48:19;;;;;;;12.80;9.60;;;;;;;10.82;78.29;95608.38;4975948;28;20569;-78
2022/04/25 00:50:46;;;;;;;12.40;9.95;;;;;;;10.81;78.21;95603.38;4976181;28;20051;-78
2022/04/25 00:53:14;;;;;;;10.13;9.07;;;;;;;10.80;77.56;95613.00;4976027;28;20318;-79
2022/04/25 00:55:42;;;;;;;11.60;10.20;;;;;;;10.80;77.21;95612.19;4975667;28;20573;-78
2022/04/25 00:58:11;;;;;;;10.45;9.32;;;;;;;10.79;77.81;95611.41;4975431;28;20536;-78
2022/04/25 01:00:40;;;;;;;12.57;10.10;;;;;;;10.80;78.08;95614.78;4975788;28;20062;-79
2022/04/25 01:03:07;;;;;;;13.65;10.75;;;;;;;10.79;77.82;95610.59;4976111;28;20050;-79
2022/04/25 01:05:35;;;;;;;13.02;10.10;;;;;;;10.80;78.22;95606.97;4975659;28;20051;-78
2022/04/25 01:08:03;;;;;;;11.10;9.55;;;;;;;10.80;78.01;95606.97;4975169;28;20053;-78
2022/04/25 01:10:30;;;;;;;11.38;10.07;;;;;;;10.80;78.07;95606.97;4975678;28;20335;-79
2022/04/25 01:12:58;;;;;;;13.00;10.48;;;;;;;10.79;78.37;95600.16;4975580;28;20054;-78
2022/04/25 01:15:28;;;;;;;12.57;11.05;;;;;;;10.79;78.37;95610.59;4975817;28;20058;-78
2022/04/25 01:17:57;;;;;;;13.20;10.75;;;;;;;10.78;77.60;95608.97;4974954;28;20144;-78
2022/04/25 01:20:25;;;;;;;13.90;11.32;;;;;;;10.79;77.93;95610.59;4976342;28;20047;-78
2022/04/25 01:22:57;;;;;;;13.95;11.75;;;;;;;10.78;77.95;95608.97;4978006;28;20057;-78
2022/04/25 01:28:10;;;;;;;15.90;11.77;;;;;;;10.76;77.44;95617.03;4975794;28;20051;-78
2022/04/25 01:30:38;;;;;;;14.40;11.30;;;;;;;10.73;76.67;95614.81;4975704;28;20051;-79
2022/04/25 01:33:06;;;;;;;14.43;12.35;;;;;;;10.71;76.64;95625.47;4975313;28;20051;-78
2022/04/25 01:35:33;;;;;;;14.52;11.63;;;;;;;10.71;76.64;95628.09;4974987;28;20050;-78
2022/04/25 01:38:01;;;;;;;15.52;13.38;;;;;;;10.70;77.08;95634.31;4973956;28;20050;-78
2022/04/25 01:40:29;;;;;;;15.50;12.55;;;;;;;10.70;77.11;95625.69;4975542;28;20050;-79
2022/04/25 01:42:57;;;;;;;17.92;13.93;;;;;;;10.70;77.07;95633.50;4975410;28;20462;-79
2022/04/25 01:45:24;;;;;;;17.10;13.93;;;;;;;10.70;77.39;95634.31;4975432;28;20447;-79
2022/04/25 01:47:52;;;;;;;16.65;14.10;;;;;;;10.70;77.51;95636.13;4974394;28;20082;-81
2022/04/25 01:50:20;;;;;;;16.48;14.00;;;;;;;10.70;77.54;95636.91;4975070;28;20055;-80
2022/04/25 01:52:47;;;;;;;16.10;13.85;;;;;;;10.70;77.56;95636.13;4975096;28;20057;-80
2022/04/25 01:55:15;;;;;;;16.38;13.82;;;;;;;10.68;77.19;95636.31;4973998;28;20047;-80
2022/04/25 01:57:44;;;;;;;18.35;14.70;;;;;;;10.68;77.10;95633.69;4973177;28;20450;-80
2022/04/25 02:00:12;;;;;;;17.45;14.68;;;;;;;10.68;76.75;95638.91;4974334;28;20054;-80
2022/04/25 02:02:39;;;;;;;20.58;15.95;;;;;;;10.68;77.13;95640.72;4974408;28;20050;-80
2022/04/25 02:05:08;;;;;;;18.17;15.57;;;;;;;10.67;77.24;95639.94;4974238;28;20141;-80
2022/04/25 02:07:36;;;;;;;18.85;16.40;;;;;;;10.67;76.91;95647.75;4973563;28;20047;-80
2022/04/25 02:10:04;;;;;;;19.27;16.77;;;;;;;10.65;76.83;95644.56;4974711;28;20050;-80
2022/04/25 02:12:31;;;;;;;19.25;16.95;;;;;;;10.65;77.02;95641.94;4974455;28;20057;-80
2022/04/25 02:15:00;;;;;;;19.02;15.90;;;;;;;10.65;76.96;95635.94;4974412;28;20506;-80
2022/04/25 02:17:28;;;;;;;17.65;15.68;;;;;;;10.63;76.80;95638.75;4973959;28;20053;-80
2022/04/25 02:19:55;;;;;;;19.27;16.15;;;;;;;10.62;76.95;95642.34;4974170;28;20062;-80
2022/04/25 02:22:23;;;;;;;20.33;16.95;;;;;;;10.62;77.01;95647.56;4973924;28;20523;-80
2022/04/25 02:24:50;;;;;;;19.55;16.50;;;;;;;10.63;76.96;95643.97;4974063;28;20055;-79
2022/04/25 02:27:18;;;;;;;19.52;16.27;;;;;;;10.62;76.98;95642.34;4973813;28;20054;-80
2022/04/25 02:29:46;;;;;;;18.92;16.08;;;;;;;10.61;76.41;95651.19;4974441;28;20416;-80
2022/04/25 02:32:17;;;;;;;20.55;15.63;;;;;;;10.61;76.81;95651.19;4974169;28;20078;-80
2022/04/25 02:34:46;;;;;;;18.60;15.75;;;;;;;10.63;76.96;95648.38;4974193;28;20061;-79
2022/04/25 02:37:15;;;;;;;22.17;17.88;;;;;;;10.62;77.31;95651.97;4973589;28;20058;-80
2022/04/25 02:39:43;;;;;;;19.48;16.00;;;;;;;10.63;77.17;95659.59;4974041;28;20433;-80
2022/04/25 02:42:11;;;;;;;19.75;16.60;;;;;;;10.62;76.87;95665.03;4974056;28;20426;-80
2022/04/25 02:44:38;;;;;;;21.48;17.08;;;;;;;10.61;77.38;95666.84;4973872;28;20051;-80
2022/04/25 02:47:13;;;;;;;20.45;16.83;;;;;;;10.63;77.12;95669.25;4974390;28;20054;-80
2022/04/25 02:49:41;;;;;;;20.85;16.42;;;;;;;10.61;77.25;95677.25;4983747;28;20050;-80
2022/04/25 02:52:09;;;;;;;17.92;15.80;;;;;;;10.60;76.92;95667.03;4987289;28;20050;-81
2022/04/25 02:54:36;;;;;;;21.00;17.63;;;;;;;10.60;77.19;95675.66;4978009;28;20421;-80
2022/04/25 02:57:05;;;;;;;21.20;16.98;;;;;;;10.60;76.77;95674.84;4976519;28;20495;-80
2022/04/25 02:59:32;;;;;;;18.92;15.73;;;;;;;10.60;76.74;95675.66;4976608;28;20495;-80
2022/04/25 03:02:00;;;;;;;20.88;17.05;;;;;;;10.59;77.25;95674.06;4975033;28;20078;-80
2022/04/25 03:04:28;;;;;;;20.08;17.50;;;;;;;10.60;77.52;95680.88;4974328;28;20058;-80
2022/04/25 03:06:57;;;;;;;19.60;17.38;;;;;;;10.61;77.58;95676.47;4973156;28;20069;-80
2022/04/25 03:09:24;;;;;;;19.58;16.25;;;;;;;10.61;77.04;95687.69;4975090;28;20109;-80
2022/04/25 03:11:52;;;;;;;20.92;17.27;;;;;;;10.61;76.84;95685.09;4974287;28;20518;-80
2022/04/25 03:14:19;;;;;;;20.15;17.30;;;;;;;10.61;76.91;95687.69;4974534;28;20426;-80
2022/04/25 03:16:47;;;;;;;19.45;16.90;;;;;;;10.60;76.50;95691.28;4973910;28;20054;-80
2022/04/25 03:19:15;;;;;;;20.65;17.52;;;;;;;10.58;76.08;95682.88;4974428;28;20065;-80
2022/04/25 03:21:43;;;;;;;23.60;18.55;;;;;;;10.59;76.52;95689.72;4974050;28;20055;-80
2022/04/25 03:24:12;;;;;;;22.45;19.17;;;;;;;10.58;76.39;95695.91;4973947;28;20066;-80
2022/04/25 03:26:40;;;;;;;20.15;17.65;;;;;;;10.58;76.67;95703.72;4972915;28;20046;-80
2022/04/25 03:29:08;;;;;;;21.77;19.08;;;;;;;10.57;77.11;95696.94;4976628;28;20047;-81
2022/04/25 03:31:35;;;;;;;24.33;19.10;;;;;;;10.56;76.26;95707.56;4973990;28;20042;-80
2022/04/25 03:34:04;;;;;;;21.48;17.90;;;;;;;10.56;76.90;95705.78;4974183;28;20418;-80
2022/04/25 03:36:31;;;;;;;22.38;19.17;;;;;;;10.54;76.58;95707.78;4973069;28;20073;-80
2022/04/25 03:38:59;;;;;;;22.95;19.17;;;;;;;10.55;76.42;95713.78;4973858;28;20046;-80
2022/04/25 03:41:31;;;;;;;20.90;18.60;;;;;;;10.54;76.05;95720.81;4974064;28;20051;-80
2022/04/25 03:43:58;;;;;;;23.90;19.35;;;;;;;10.54;76.54;95717.38;4973577;28;20495;-80
2022/04/25 03:46:27;;;;;;;20.92;18.65;;;;;;;10.52;76.02;95718.41;4973367;28;20391;-80
2022/04/25 03:48:55;;;;;;;21.38;19.05;;;;;;;10.52;75.56;95723.63;4973567;28;20053;-80
2022/04/25 03:51:23;;;;;;;22.95;19.73;;;;;;;10.51;75.18;95723.81;4973408;28;20053;-80
2022/04/25 03:53:51;;;;;;;26.20;20.33;;;;;;;10.51;75.73;95723.81;4973850;28;20055;-80
2022/04/25 03:59:05;;;;;;;23.50;19.23;;;;;;;10.50;76.58;95735.25;4974015;28;20053;-80
2022/04/25 04:01:32;;;;;;;23.00;20.42;;;;;;;10.51;76.92;95734.25;4975817;28;20517;-80
2022/04/25 04:04:04;;;;;;;29.92;21.23;;;;;;;10.52;77.40;95735.88;4977188;28;20051;-80
2022/04/25 04:06:32;;;;;;;22.70;19.75;;;;;;;10.54;77.34;95738.25;4976584;28;20495;-80
2022/04/25 04:09:44;;;;;;;23.90;20.95;;;;;;;10.55;77.46;95735.44;4977114;28;20054;-80
2022/04/25 04:11:48;;;;;;;21.35;19.05;;;;;;;10.55;77.41;95745.88;4977194;28;20058;-80
2022/04/25 04:14:16;;;;;;;27.38;20.88;;;;;;;10.57;77.54;95751.69;4977072;28;20154;-79
2022/04/25 04:16:44;;;;;;;24.13;19.92;;;;;;;10.55;77.42;95751.09;4976350;28;20047;-80
2022/04/25 04:19:11;;;;;;;25.83;20.85;;;;;;;10.54;76.14;95754.72;4976656;28;20051;-80
2022/04/25 04:21:39;;;;;;;24.77;20.88;;;;;;;10.52;76.51;95761.94;4977182;28;20051;-80
2022/04/25 04:24:09;;;;;;;21.73;19.38;;;;;;;10.52;76.49;95761.94;4976864;28;20046;-80
2022/04/25 04:26:37;;;;;;;25.77;20.52;;;;;;;10.53;76.79;95771.34;4976045;28;20506;-80
2022/04/25 04:29:05;;;;;;;24.80;21.60;;;;;;;10.53;77.12;95766.13;4977237;28;20047;-80
2022/04/25 04:31:34;;;;;;;23.83;20.20;;;;;;;10.53;77.23;95773.97;4976779;28;20050;-80
2022/04/25 04:34:01;;;;;;;22.25;19.33;;;;;;;10.52;76.93;95777.59;4976733;28;20063;-80
2022/04/25 04:36:29;;;;;;;21.98;19.13;;;;;;;10.50;76.22;95782.19;4975838;28;20050;-80
2022/04/25 04:38:56;;;;;;;22.05;19.40;;;;;;;10.48;76.02;95781.59;4976533;28;20047;-80
2022/04/25 04:41:24;;;;;;;22.60;19.95;;;;;;;10.48;76.21;95794.63;4976319;28;20084;-80
2022/04/25 04:43:51;;;;;;;21.83;19.40;;;;;;;10.48;76.29;95792.03;4976487;28;20061;-80
2022/04/25 04:46:19;;;;;;;22.45;19.42;;;;;;;10.48;76.32;95794.63;4975906;28;20054;-80
2022/04/25 04:48:48;;;;;;;25.20;19.98;;;;;;;10.47;76.68;95795.63;4976481;28;20055;-80
2022/04/25 04:51:15;;;;;;;22.80;19.25;;;;;;;10.45;75.37;95795.84;4976338;28;20066;-80
2022/04/25 04:53:43;;;;;;;20.60;18.35;;;;;;;10.45;76.01;95802.84;4976023;28;20046;-79
2022/04/25 04:56:10;;;;;;;22.42;18.95;;;;;;;10.45;75.76;95803.66;5003474;23;20046;-76
2022/04/25 04:58:40;;;;;;;22.23;19.05;;;;;;;10.45;76.34;95806.25;4995502;28;20056;-77
2022/04/25 05:01:07;;;;;;;20.92;18.75;;;;;;;10.46;76.42;95813.06;4995296;28;20505;-77
2022/04/25 05:03:36;;;;;;;21.50;17.35;;;;;;;10.46;75.90;95814.88;4995280;28;20061;-77
2022/04/25 05:06:05;;;;;;;21.67;18.50;;;;;;;10.46;75.75;95822.72;4994517;28;20094;-77
2022/04/25 05:08:32;;;;;;;23.42;19.90;;;;;;;10.46;76.01;95822.72;4995236;28;20533;-77
2022/04/25 05:11:00;;;;;;;22.35;19.63;;;;;;;10.46;76.62;95820.91;4995155;28;20499;-77
2022/04/25 05:13:27;;;;;;;21.85;19.08;;;;;;;10.48;76.85;95833.75;4994787;28;20054;-76
2022/04/25 05:15:55;;;;;;;22.90;19.83;;;;;;;10.49;77.08;95835.34;4994384;28;20081;-76
2022/04/25 05:18:22;;;;;;;23.48;20.73;;;;;;;10.46;75.38;95835.75;4991957;28;20050;-77
2022/04/25 05:20:50;;;;;;;21.27;18.13;;;;;;;10.43;75.59;95836.94;4987528;28;20056;-78
2022/04/25 05:23:19;;;;;;;25.75;20.17;;;;;;;10.43;75.40;95846.56;4995278;28;20061;-78
2022/04/25 05:25:46;;;;;;;41.90;21.73;;;;;;;10.42;75.36;95850.97;4994047;28;20054;-78
2022/04/25 05:28:14;;;;;;;55.28;23.45;;;;;;;10.43;76.11;95851.75;4990625;28;20042;-77
2022/04/25 05:30:42;;;;;;;27.58;17.92;;;;;;;10.43;75.66;95859.59;4975347;28;20051;-79
2022/04/25 05:33:10;;;;;;;29.13;19.17;;;;;;;10.40;76.18;95860.78;4975608;28;20541;-77
2022/04/25 05:35:37;;;;;;;25.77;18.55;;;;;;;10.41;76.88;95856.41;4979673;28;20434;-78
2022/04/25 05:38:06;;;;;;;23.00;19.30;;;;;;;10.43;76.95;95863.03;4996818;28;20429;-79
2022/04/25 05:40:36;;;;;;;23.92;18.75;;;;;;;10.42;76.23;95864.00;4998063;28;20052;-79
2022/04/25 05:43:05;;;;;;;22.85;18.27;;;;;;;10.36;74.19;95861.38;5010082;28;20132;-77
2022/04/25 05:45:33;;;;;;;25.15;17.48;;;;;;;10.32;73.99;95861.00;4996395;28;20531;-78
2022/04/25 05:51:58;;;;;;;20.20;17.83;;;;;;;10.33;74.96;95861.81;4973966;28;20051;-77
2022/04/25 05:53:34;;;;;;;21.85;18.20;;;;;;;10.37;75.75;95868.22;4994442;28;20510;-77
2022/04/25 05:56:03;;;;;;;21.35;18.13;;;;;;;10.38;76.35;95867.22;4984533;28;20050;-78
2022/04/25 05:58:30;;;;;;;20.15;17.95;;;;;;;10.39;75.86;95872.25;4982934;28;20050;-79
2022/04/25 06:00:58;;;;;;;18.80;16.80;;;;;;;10.39;74.20;95871.44;4984768;28;20058;-78
2022/04/25 06:03:26;;;;;;;19.58;17.48;;;;;;;10.34;72.92;95872.00;4987374;28;20057;-80
2022/04/25 06:05:54;;;;;;;19.10;17.02;;;;;;;10.34;75.02;95868.59;4974680;28;20058;-80
2022/04/25 06:08:21;;;;;;;19.20;17.05;;;;;;;10.36;75.68;95880.44;4978629;28;20494;-79
2022/04/25 06:10:49;;;;;;;20.35;17.63;;;;;;;10.40;75.80;95878.25;4982647;28;20052;-79
2022/04/25 06:13:18;;;;;;;19.48;17.38;;;;;;;10.40;74.99;95879.03;4989350;28;20046;-78
2022/04/25 06:15:45;;;;;;;19.73;17.55;;;;;;;10.43;76.07;95883.06;4982716;28;20062;-78
2022/04/25 06:18:13;;;;;;;20.23;17.10;;;;;;;10.41;73.54;95885.88;4990122;28;20046;-80
2022/04/25 06:20:40;;;;;;;19.23;16.98;;;;;;;10.38;72.82;95885.47;4979714;28;20059;-80
2022/04/25 06:23:08;;;;;;;20.13;17.52;;;;;;;10.38;72.40;95888.88;4974486;28;20407;-79
2022/04/25 06:25:37;;;;;;;19.95;17.77;;;;;;;10.41;72.27;95895.50;4975331;28;20065;-79
2022/04/25 06:28:05;;;;;;;20.02;17.85;;;;;;;10.44;73.92;95897.72;4977018;28;20066;-79
2022/04/25 06:30:34;;;;;;;22.45;18.70;;;;;;;10.51;75.12;95901.91;4978952;28;20046;-79
2022/04/25 06:33:02;;;;;;;20.23;17.73;;;;;;;10.60;75.83;95901.75;4988118;28;20046;-80
2022/04/25 06:35:30;;;;;;;22.80;18.15;;;;;;;10.64;74.46;95911.56;4985203;28;20047;-79
2022/04/25 06:37:57;;;;;;;19.92;15.30;;;;;;;10.66;72.79;95906.97;4980213;28;20511;-79
2022/04/25 06:40:25;;;;;;;17.30;14.75;;;;;;;10.62;71.96;95913.56;4993619;28;20050;-79
2022/04/25 06:42:55;;;;;;;18.02;16.10;;;;;;;10.65;72.27;95917.63;4978998;28;20495;-79
2022/04/25 06:45:23;;;;;;;17.83;15.52;;;;;;;10.66;71.55;95925.22;4989832;28;20050;-79
2022/04/25 06:47:53;;;;;;;17.23;15.05;;;;;;;10.67;71.37;95923.41;4975134;28;20055;-79
2022/04/25 06:50:20;;;;;;;19.60;17.35;;;;;;;10.69;71.31;95921.41;4974713;28;20434;-78
2022/04/25 06:52:48;;;;;;;17.75;15.95;;;;;;;10.72;72.52;95926.25;4984837;28;20395;-78
2022/04/25 06:55:15;;;;;;;18.83;15.73;;;;;;;10.79;72.78;95923.63;4974825;28;20066;-79
2022/04/25 06:57:43;;;;;;;17.35;15.55;;;;;;;10.81;71.65;95929.47;4991212;28;20052;-78
2022/04/25 07:00:11;;;;;;;17.67;15.77;;;;;;;10.79;70.40;95931.47;4973467;28;20054;-79
2022/04/25 07:03:00;;;;;;;16.58;14.82;;;;;;;10.76;69.77;95934.47;4975575;28;20047;-79
2022/04/25 07:05:28;;;;;;;15.82;13.77;;;;;;;10.76;69.74;95934.47;4976065;28;20051;-78
2022/04/25 07:07:55;;;;;;;15.48;13.88;;;;;;;10.78;69.39;95929.84;4989060;28;20506;-79
2022/04/25 07:10:23;;;;;;;13.35;11.95;;;;;;;10.86;69.47;95929.66;4991623;28;20054;-79
2022/04/25 07:12:51;;;;;;;14.77;13.27;;;;;;;10.97;69.62;95931.66;4991727;28;20418;-79
2022/04/25 07:15:19;;;;;;;14.35;10.95;;;;;;;11.03;68.14;95925.66;4991796;28;20054;-79
2022/04/25 07:17:50;;;;;;;11.30;10.20;;;;;;;11.08;67.41;95912.78;4972706;28;20058;-79
2022/04/25 07:20:19;;;;;;;11.50;10.48;;;;;;;11.14;66.72;95914.59;4990476;28;20058;-78
2022/04/25 07:31:04;;;;;;;13.43;12.05;;;;;;;11.47;66.88;95921.59;4983241;28;20494;-78
2022/04/25 07:33:33;;;;;;;11.98;10.63;;;;;;;11.53;66.45;95920.00;4973455;28;20054;-78
2022/04/25 07:36:02;;;;;;;17.88;10.90;;;;;;;11.61;65.92;95935.47;4987416;28;20446;-77
2022/04/25 07:38:30;;;;;;;13.13;11.45;;;;;;;11.71;68.54;95927.19;4985534;28;20055;-76
2022/04/25 07:40:57;;;;;;;12.45;11.13;;;;;;;11.80;67.62;95931.16;4992565;28;20046;-78
2022/04/25 07:43:25;;;;;;;13.35;10.05;;;;;;;11.87;65.88;95928.53;4990845;28;20056;-77
2022/04/25 07:45:52;;;;;;;10.30;9.30;;;;;;;11.98;64.79;95933.16;4991588;28;20050;-77
2022/04/25 07:48:20;;;;;;;10.55;8.82;;;;;;;12.09;63.92;95935.13;4990545;28;20042;-78
2022/04/25 07:50:47;;;;;;;10.43;9.43;;;;;;;12.23;63.91;95935.88;4974050;28;20053;-78
2022/04/25 07:53:16;;;;;;;11.38;10.27;;;;;;;12.37;66.29;95944.44;4988229;28;20054;-77
2022/04/25 07:55:44;;;;;;;10.00;8.95;;;;;;;12.49;63.45;95948.03;4992279;28;20046;-78
2022/04/25 07:58:12;;;;;;;9.05;8.07;;;;;;;12.59;62.22;95942.31;4990364;28;20046;-78
2022/04/25 08:00:40;;;;;;;8.73;7.93;;;;;;;12.69;61.89;95939.25;4992286;28;20056;-78
2022/04/25 08:03:08;;;;;;;9.25;8.35;;;;;;;12.79;60.84;95950.06;4981321;28;20129;-78
2022/04/25 08:05:35;;;;;;;9.68;8.77;;;;;;;12.87;60.39;95951.63;4990327;28;20055;-77
2022/04/25 08:08:03;;;;;;;10.93;8.80;;;;;;;12.98;60.27;95958.78;4978254;28;20042;-77
2022/04/25 08:10:32;;;;;;;8.60;7.75;;;;;;;13.04;59.10;95952.72;4974895;28;20511;-78
2022/04/25 08:18:30;;;;;;;8.68;7.50;;;;;;;13.35;59.12;95958.94;4989469;28;20052;-79
2022/04/25 08:20:57;;;;;;;8.75;7.88;;;;;;;13.44;58.64;95960.25;4976956;28;20066;-78
2022/04/25 08:23:26;;;;;;;8.90;8.10;;;;;;;13.52;58.17;95965.22;4988635;28;20057;-78
2022/04/25 08:25:55;;;;;;;8.15;7.40;;;;;;;13.64;58.12;95967.13;4989584;28;20155;-78
2022/04/25 08:28:22;;;;;;;9.18;8.30;;;;;;;13.75;58.72;95969.03;4991745;28;20050;-77
2022/04/25 08:31:10;;;;;;;8.57;7.70;;;;;;;13.90;59.37;95972.13;4990719;28;20538;-80
2022/04/25 08:33:43;;;;;;;7.30;6.60;;;;;;;14.05;61.08;95973.59;4985637;28;20055;-77
2022/04/25 08:36:12;;;;;;;7.45;6.78;;;;;;;14.16;58.12;95972.84;4973934;28;20053;-77
2022/04/25 08:38:43;;;;;;;7.55;6.85;;;;;;;14.27;59.81;95974.72;4992058;28;20050;-78
2022/04/25 08:41:14;;;;;;;8.55;6.75;;;;;;;14.41;61.15;95976.19;4990323;28;20074;-78
2022/04/25 08:43:42;;;;;;;7.53;6.85;;;;;;;14.53;58.09;95970.19;4972805;28;20400;-78
2022/04/25 08:46:11;;;;;;;6.57;5.97;;;;;;;14.63;56.44;95978.38;4982821;28;20046;-77
2022/04/25 08:48:39;;;;;;;8.68;7.18;;;;;;;14.74;58.97;95980.25;4983555;28;20050;-78
2022/04/25 08:51:09;;;;;;;7.43;6.80;;;;;;;14.80;56.39;95984.59;4986861;28;20070;-77
2022/04/25 08:53:39;;;;;;;7.05;6.35;;;;;;;14.88;58.80;95982.69;4990320;28;20063;-78
2022/04/25 08:56:07;;;;;;;6.97;6.30;;;;;;;14.94;55.40;95992.28;4992901;28;20056;-78
2022/04/25 08:58:41;;;;;;;7.05;6.40;;;;;;;15.00;57.63;95986.16;4994778;28;20132;-78
2022/04/25 09:01:10;;;;;;;6.10;5.50;;;;;;;15.06;59.06;95985.22;4994538;28;20498;-78
2022/04/25 09:03:40;;;;;;;7.03;6.32;;;;;;;15.11;53.79;95981.91;4993495;28;20061;-79
2022/04/25 09:06:08;;;;;;;6.43;5.82;;;;;;;15.16;56.87;95979.44;4994515;28;20073;-78
2022/04/25 09:08:36;;;;;;;6.20;5.60;;;;;;;15.24;57.61;95977.28;4994525;28;20043;-79
2022/04/25 09:13:47;;;;;;;6.80;5.97;;;;;;;15.30;58.19;95980.03;4993082;28;20145;-78
2022/04/25 09:16:17;;;;;;;5.88;5.15;;;;;;;15.32;55.77;95980.59;4993530;28;20046;-78
2022/04/25 09:18:45;;;;;;;5.90;5.40;;;;;;;15.36;54.88;95979.91;4988310;28;20419;-78
2022/04/25 09:21:14;;;;;;;6.13;5.53;;;;;;;15.43;56.92;95985.06;4975507;28;20057;-78
2022/04/25 09:23:42;;;;;;;6.20;5.70;;;;;;;15.46;54.51;95984.63;4984219;28;20047;-79
2022/04/25 09:26:11;;;;;;;6.03;5.22;;;;;;;15.48;53.43;95987.00;4991958;28;20518;-80
2022/04/25 09:28:50;;;;;;;5.75;4.93;;;;;;;15.44;49.86;95984.06;4994595;28;20048;-80
2022/04/25 09:31:19;;;;;;;4.95;4.45;;;;;;;15.43;51.27;95993.75;4983192;28;20057;-79
2022/04/25 09:33:47;;;;;;;3.63;3.33;;;;;;;15.41;49.26;95987.13;4975237;28;20173;-77
2022/04/25 09:36:15;;;;;;;4.63;4.22;;;;;;;15.40;48.78;95988.94;4974567;28;20051;-79
2022/04/25 09:38:44;;;;;;;4.50;4.10;;;;;;;15.40;48.33;95993.41;4975285;28;20433;-79
2022/04/25 09:41:13;;;;;;;4.07;3.70;;;;;;;15.39;48.65;95989.16;4975465;28;20057;-78
2022/04/25 09:43:42;;;;;;;4.97;4.25;;;;;;;15.43;49.68;95995.56;4976504;28;20051;-79
2022/04/25 09:46:14;;;;;;;4.75;4.35;;;;;;;15.52;51.29;95990.78;4986431;28;20429;-79
2022/04/25 09:49:01;;;;;;;4.90;4.50;;;;;;;15.63;52.63;95998.69;4994395;28;20144;-77
2022/04/25 09:51:28;;;;;;;4.97;4.55;;;;;;;15.77;52.32;95993.25;4979476;28;20430;-78
2022/04/25 09:53:57;;;;;;;4.03;3.72;;;;;;;15.84;49.73;95993.91;4993083;28;20046;-78
2022/04/25 09:56:26;;;;;;;4.03;3.72;;;;;;;15.90;48.30;95990.38;4994817;28;20050;-78
2022/04/25 09:59:00;;;;;;;5.43;4.10;;;;;;;16.01;48.20;95996.66;4987117;28;20514;-79
2022/04/25 10:01:29;;;;;;;4.53;4.13;;;;;;;16.12;49.51;95997.66;4985414;28;20046;-78
2022/04/25 10:03:58;;;;;;;4.45;4.13;;;;;;;16.24;49.51;95995.81;4980582;28;20133;-77
2022/04/25 10:06:28;;;;;;;4.78;4.38;;;;;;;16.37;53.31;95994.75;4989968;28;20051;-77
2022/04/25 10:08:57;;;;;;;4.75;4.35;;;;;;;16.40;49.70;95989.81;4992632;28;20046;-77
2022/04/25 10:11:28;;;;;;;4.70;4.30;;;;;;;16.40;48.54;96000.34;4991758;28;20502;-77
2022/04/25 10:13:56;;;;;;;5.15;4.68;;;;;;;16.35;47.41;95992.34;4991851;28;20042;-78
2022/04/25 10:16:25;;;;;;;5.43;4.60;;;;;;;16.27;46.93;95998.00;4991009;28;20054;-78
2022/04/25 10:18:54;;;;;;;4.93;4.53;;;;;;;16.21;46.19;95997.06;4991396;28;20059;-78
2022/04/25 10:21:23;;;;;;;5.03;4.47;;;;;;;16.20;45.88;95995.47;4991614;28;20050;-78
2022/04/25 10:23:50;;;;;;;4.35;3.85;;;;;;;16.27;47.27;95998.78;4992591;28;20053;-77
2022/04/25 10:26:18;;;;;;;4.40;4.00;;;;;;;16.35;47.81;95996.81;4992668;28;20053;-77
2022/04/25 10:28:50;;;;;;;3.90;3.60;;;;;;;16.45;47.41;96003.06;4993451;28;20053;-77
2022/04/25 10:31:23;;;;;;;5.00;3.80;;;;;;;16.58;45.98;96003.84;4993031;28;20051;-77
2022/04/25 10:33:53;;;;;;;4.03;3.70;;;;;;;16.69;46.28;96003.00;4991730;28;20514;-78
2022/04/25 10:36:52;;;;;;;4.45;3.97;;;;;;;16.76;45.93;96008.13;4992501;28;20030;-77
2022/04/25 10:39:20;;;;;;;4.13;3.78;;;;;;;16.80;48.98;96004.81;4904946;29;20475;-76
2022/04/25 10:44:56;;;;;;;6.07;3.63;;;;;;;16.80;49.17;96004.81;4988921;28;20050;-77
2022/04/25 10:47:25;;;;;;;5.32;4.15;;;;;;;16.80;47.43;96015.34;5006937;28;20050;-77
2022/04/25 10:50:06;;;;;;;5.05;4.65;;;;;;;16.77;46.49;96012.34;4997123;28;20525;-78
2022/04/25 10:52:54;;;;;;;4.65;4.20;;;;;;;16.69;46.73;96003.81;4993648;28;20062;-78
2022/04/25 10:55:26;;;;;;;5.22;4.18;;;;;;;16.63;47.08;96003.94;4987419;28;20043;-78
2022/04/25 10:58:22;;;;;;;5.78;4.35;;;;;;;16.55;45.79;96005.13;5008073;23;20502;-79
2022/04/25 11:00:59;;;;;;;5.55;4.22;;;;;;;16.50;45.38;96009.47;4993475;28;20086;-82
2022/04/25 11:03:29;;;;;;;3.95;3.65;;;;;;;16.50;50.84;96012.91;4994210;28;20101;-81
2022/04/25 11:06:03;;;;;;;4.53;4.00;;;;;;;16.56;47.63;96013.81;4992259;28;20042;-82
2022/04/25 11:08:39;;;;;;;4.90;4.50;;;;;;;16.65;46.76;96007.16;4978256;28;20074;-82
2022/04/25 11:11:20;;;;;;;5.30;3.47;;;;;;;16.74;45.73;96004.94;4972722;28;20412;-82
2022/04/25 11:14:10;;;;;;;4.43;4.03;;;;;;;16.77;46.92;95993.91;4974218;28;20105;-82
2022/04/25 11:16:39;;;;;;;5.20;4.40;;;;;;;16.80;46.01;96009.31;4973118;28;20046;-82
2022/04/25 11:19:09;;;;;;;4.60;4.18;;;;;;;16.77;45.63;96005.28;4974114;28;20499;-82
2022/04/25 11:21:43;;;;;;;5.10;4.40;;;;;;;16.75;45.40;96011.78;4974546;28;20047;-82
2022/04/25 11:27:05;;;;;;;4.38;3.97;;;;;;;16.68;45.40;96012.75;5144391;27;20168;-79
2022/04/25 11:29:33;;;;;;;5.60;4.22;;;;;;;16.67;45.50;96013.75;5111566;28;20048;-80
2022/04/25 11:32:30;;;;;;;5.13;4.03;;;;;;;16.70;44.69;96012.50;5103900;28;20058;-80
2022/04/25 11:35:00;;;;;;;4.07;3.78;;;;;;;16.73;45.48;96013.88;5114374;28;20051;-80
2022/04/25 11:37:29;;;;;;;4.15;3.78;;;;;;;16.79;46.06;96008.47;5111968;28;20048;-80
2022/04/25 11:40:02;;;;;;;4.28;3.88;;;;;;;16.82;44.25;96013.28;5112818;28;20048;-80
2022/04/25 11:42:33;;;;;;;5.15;3.50;;;;;;;16.81;44.71;96010.88;5113283;28;20043;-80
2022/04/25 11:45:02;;;;;;;5.10;3.33;;;;;;;16.84;47.34;96013.84;5113459;28;20058;-80
2022/04/25 11:47:31;;;;;;;4.68;3.60;;;;;;;16.89;47.04;96019.22;5113578;28;20054;-80
2022/04/25 11:50:00;;;;;;;4.15;3.70;;;;;;;16.97;44.50;96014.63;5112995;28;20589;-80
2022/04/25 11:52:28;;;;;;;3.72;3.42;;;;;;;17.03;45.47;96018.91;5114137;28;20048;-80
2022/04/25 11:54:56;;;;;;;4.10;3.70;;;;;;;17.08;46.20;96021.66;5112966;28;20059;-80
2022/04/25 11:57:25;;;;;;;4.57;4.18;;;;;;;17.07;43.47;96014.78;5112360;28;20516;-80
2022/04/25 12:00:17;;;;;;;3.60;3.30;;;;;;;17.11;46.44;96017.75;5113702;28;20078;-80
2022/04/25 12:02:45;;;;;;;4.10;3.28;;;;;;;17.13;44.67;96018.31;5114290;28;20044;-80